Emmonak Airport Emmonak US
ICAO: PAEM
IATA:
Category: Medium
Scheduled Services:

Elevation: 13 ft
TransAlt. 18000 ft.

Airport Communications:
AWOS 3:135.35
ANCHORAGE CNTR:132.5
CTAF:122.9
KENAI RDO:122.55
TWEB:177.8

PAEM Zoom In..

Runways:

(A) RW 16 length 4601 ft width 100 ft
---- / hdg 163

(B) RW 34 length 4601 ft width 100 ft
---- / hdg 343

Location; PAEM
Day. 25 / Time. 11.56 Zulu
* Altimeter: 29.19
* Temperature: 01° c. 33.8°f.
* Wind from: 170° Speed 18 kn with Gusts up to 25 kn.
Dewpoint: 00° c.
Visibility: 8 Statute Miles.
Clouds: Overcast 400 ft.

PAEM 251156Z AUTO 17018G25KT 8SM OVC004 01/00 A2919 RMK AO2 PK WND 17028/1101 RAE56UPB16E28 SLP944 P0000 60000 70008 T00110000 10017 20006 53019 FZRANO


Wind From 170°
Speed 18 kn.

  YouTube Music Video
 
jpsmedia.com for Web Design  worldairports.se 2018   terms of use